createdAt,value
2018-02-05T00:00:21.010Z,0
2018-02-05T00:01:01.592Z,0
2018-02-05T00:01:42.138Z,0
2018-02-05T00:02:22.741Z,0
2018-02-05T00:03:03.368Z,0
2018-02-05T00:03:43.931Z,0
2018-02-05T00:04:24.477Z,0
2018-02-05T00:05:05.016Z,0
2018-02-05T00:05:45.608Z,0
2018-02-05T00:06:26.182Z,0
2018-02-05T00:07:06.760Z,0
2018-02-05T00:07:47.283Z,0
2018-02-05T00:08:27.870Z,0
2018-02-05T00:09:08.404Z,0
2018-02-05T00:09:48.972Z,0
2018-02-05T00:10:29.810Z,0
2018-02-05T00:11:10.371Z,0
2018-02-05T00:11:50.927Z,0
2018-02-05T00:12:31.470Z,0
2018-02-05T00:13:12.035Z,0
2018-02-05T00:13:52.579Z,0
2018-02-05T00:14:33.216Z,0
2018-02-05T00:15:13.812Z,0
2018-02-05T00:15:54.405Z,0
2018-02-05T00:16:34.994Z,0
2018-02-05T00:17:15.518Z,0
2018-02-05T00:17:56.082Z,0
2018-02-05T00:18:36.708Z,0
2018-02-05T00:19:17.309Z,0
2018-02-05T00:19:57.904Z,0
2018-02-05T00:20:38.518Z,0
2018-02-05T00:21:19.054Z,0
2018-02-05T00:21:59.623Z,0
2018-02-05T00:22:40.253Z,0
2018-02-05T00:23:20.852Z,0
2018-02-05T00:24:01.393Z,0
2018-02-05T00:24:41.979Z,0
2018-02-05T00:25:22.557Z,0
2018-02-05T00:26:03.156Z,0
2018-02-05T00:26:43.705Z,0
2018-02-05T00:27:24.260Z,0
2018-02-05T00:28:04.870Z,0
2018-02-05T00:28:45.459Z,0
2018-02-05T00:29:26.213Z,0
2018-02-05T00:30:06.820Z,0
2018-02-05T00:30:47.421Z,0
2018-02-05T00:31:27.968Z,0
2018-02-05T00:32:08.561Z,0
2018-02-05T00:32:49.109Z,0
2018-02-05T00:33:29.654Z,0
2018-02-05T00:34:10.209Z,0
2018-02-05T00:34:50.761Z,0
2018-02-05T00:35:31.286Z,0
2018-02-05T00:36:11.851Z,0
2018-02-05T00:36:52.614Z,0
2018-02-05T00:37:33.269Z,0
2018-02-05T00:38:13.825Z,0
2018-02-05T00:38:54.428Z,0
2018-02-05T00:39:34.982Z,0
2018-02-05T00:40:15.568Z,0
2018-02-05T00:40:56.130Z,0
2018-02-05T00:41:36.690Z,0
2018-02-05T00:42:17.288Z,0
2018-02-05T00:42:57.870Z,0
2018-02-05T00:43:38.464Z,0
2018-02-05T00:44:19.063Z,0
2018-02-05T00:44:59.658Z,0
2018-02-05T00:45:40.245Z,0
2018-02-05T00:46:20.818Z,0
2018-02-05T00:47:01.353Z,0
2018-02-05T00:47:41.914Z,0
2018-02-05T00:48:22.491Z,0
2018-02-05T00:49:03.074Z,0
2018-02-05T00:49:43.631Z,0
2018-02-05T00:50:24.217Z,0
2018-02-05T00:51:04.784Z,0
2018-02-05T00:51:45.337Z,0
2018-02-05T00:52:25.881Z,0
2018-02-05T00:53:06.510Z,0
2018-02-05T00:53:47.170Z,0
2018-02-05T00:54:27.702Z,0
2018-02-05T00:55:08.254Z,0
2018-02-05T00:55:48.795Z,0
2018-02-05T00:56:29.346Z,0
2018-02-05T00:57:09.897Z,0
2018-02-05T00:57:50.471Z,0
2018-02-05T00:58:31.033Z,0
2018-02-05T00:59:11.580Z,0
2018-02-05T00:59:52.231Z,0
2018-02-05T01:00:32.846Z,0
2018-02-05T01:01:13.422Z,0
2018-02-05T01:01:53.989Z,0
2018-02-05T01:02:34.526Z,0
2018-02-05T01:03:15.058Z,0
2018-02-05T01:03:55.619Z,0
2018-02-05T01:04:36.221Z,0
2018-02-05T01:05:16.750Z,0
2018-02-05T01:05:57.321Z,0
2018-02-05T01:06:37.946Z,0
2018-02-05T01:07:18.544Z,0
2018-02-05T01:08:06.068Z,0
2018-02-05T01:08:46.634Z,0
2018-02-05T01:09:27.172Z,0
2018-02-05T01:10:07.815Z,0
2018-02-05T01:10:48.386Z,0
2018-02-05T01:11:29.000Z,0
2018-02-05T01:12:09.559Z,0
2018-02-05T01:12:50.133Z,0
2018-02-05T01:13:30.700Z,0
2018-02-05T01:14:11.237Z,0
2018-02-05T01:14:51.796Z,0
2018-02-05T01:15:32.349Z,0
2018-02-05T01:16:12.901Z,0
2018-02-05T01:16:53.447Z,0
2018-02-05T01:17:34.079Z,0
2018-02-05T01:18:14.632Z,0
2018-02-05T01:18:55.199Z,0
2018-02-05T01:19:35.769Z,0
2018-02-05T01:20:16.332Z,0
2018-02-05T01:20:56.914Z,0
2018-02-05T01:21:37.509Z,0
2018-02-05T01:22:18.081Z,0
2018-02-05T01:22:58.624Z,0
2018-02-05T01:23:39.183Z,0
2018-02-05T01:24:19.722Z,0
2018-02-05T01:25:00.303Z,0
2018-02-05T01:25:40.859Z,0
2018-02-05T01:26:21.425Z,0
2018-02-05T01:27:02.087Z,0
2018-02-05T01:27:42.663Z,0
2018-02-05T01:28:23.187Z,0
2018-02-05T01:29:03.766Z,0
2018-02-05T01:29:44.325Z,0
2018-02-05T01:30:24.873Z,0
2018-02-05T01:31:05.439Z,0
2018-02-05T01:31:46.029Z,0
2018-02-05T01:32:26.622Z,0
2018-02-05T01:33:07.194Z,0
2018-02-05T01:33:47.751Z,0
2018-02-05T01:34:28.423Z,0
2018-02-05T01:35:09.092Z,0
2018-02-05T01:35:49.576Z,0
2018-02-05T01:36:30.184Z,0
2018-02-05T01:37:10.786Z,0
2018-02-05T01:37:51.361Z,0
2018-02-05T01:38:31.972Z,0
2018-02-05T01:39:12.592Z,0
2018-02-05T01:39:53.138Z,0
2018-02-05T01:40:33.715Z,0
2018-02-05T01:41:14.302Z,0
2018-02-05T01:41:54.859Z,0
2018-02-05T01:42:35.390Z,0
2018-02-05T01:43:15.936Z,0
2018-02-05T01:43:56.482Z,0
2018-02-05T01:44:37.068Z,0
2018-02-05T01:45:17.627Z,0
2018-02-05T01:45:58.209Z,0
2018-02-05T01:46:38.745Z,0
2018-02-05T01:47:19.307Z,0
2018-02-05T01:47:59.876Z,0
2018-02-05T01:48:40.422Z,0
2018-02-05T01:49:20.996Z,0
2018-02-05T01:50:01.555Z,0
2018-02-05T01:50:42.117Z,0
2018-02-05T01:51:22.693Z,0
2018-02-05T01:52:03.261Z,0
2018-02-05T01:52:43.840Z,0
2018-02-05T01:53:24.414Z,0
2018-02-05T01:54:04.954Z,0
2018-02-05T01:54:45.489Z,0
2018-02-05T01:55:26.079Z,0
2018-02-05T01:56:06.614Z,0
2018-02-05T01:56:47.278Z,0
2018-02-05T01:57:27.799Z,0
2018-02-05T01:58:08.388Z,0
2018-02-05T01:58:48.939Z,0
2018-02-05T01:59:29.511Z,0
2018-02-05T02:00:10.064Z,0
2018-02-05T02:00:50.638Z,0
2018-02-05T02:01:31.212Z,0
2018-02-05T02:02:11.781Z,0
2018-02-05T02:02:52.333Z,0
2018-02-05T02:03:32.884Z,0
2018-02-05T02:04:13.486Z,0
2018-02-05T02:04:54.069Z,0
2018-02-05T02:05:34.636Z,0
2018-02-05T02:06:15.198Z,0
2018-02-05T02:06:55.870Z,0
2018-02-05T02:07:36.433Z,0
2018-02-05T02:08:17.049Z,0
2018-02-05T02:08:57.601Z,0
2018-02-05T02:09:38.158Z,0
2018-02-05T02:10:18.751Z,0
2018-02-05T02:10:59.305Z,0
2018-02-05T02:11:39.858Z,0
2018-02-05T02:12:20.403Z,0
2018-02-05T02:13:00.954Z,0
2018-02-05T02:13:41.530Z,0
2018-02-05T02:14:22.143Z,0
2018-02-05T02:15:02.776Z,0
2018-02-05T02:15:43.340Z,0
2018-02-05T02:16:23.886Z,0
2018-02-05T02:17:04.424Z,0
2018-02-05T02:17:45.014Z,0
2018-02-05T02:18:25.597Z,0
2018-02-05T02:19:06.147Z,0
2018-02-05T02:19:46.728Z,0
2018-02-05T02:20:27.267Z,0
2018-02-05T02:21:07.810Z,0
2018-02-05T02:21:48.405Z,0
2018-02-05T02:22:29.006Z,0
2018-02-05T02:23:09.571Z,0
2018-02-05T02:23:50.143Z,0
2018-02-05T02:24:30.687Z,0
2018-02-05T02:25:11.258Z,0
2018-02-05T02:25:51.786Z,0
2018-02-05T02:26:32.349Z,0
2018-02-05T02:27:12.902Z,0
2018-02-05T02:27:53.450Z,0
2018-02-05T02:28:34.002Z,0
2018-02-05T02:29:14.567Z,0
2018-02-05T02:29:55.124Z,0
2018-02-05T02:30:35.696Z,0
2018-02-05T02:31:16.263Z,0
2018-02-05T02:31:56.834Z,0
2018-02-05T02:32:37.424Z,0
2018-02-05T02:33:17.965Z,0
2018-02-05T02:33:58.563Z,0
2018-02-05T02:34:39.133Z,0
2018-02-05T02:35:19.670Z,0
2018-02-05T02:36:00.250Z,0
2018-02-05T02:36:40.782Z,0
2018-02-05T02:37:21.332Z,0
2018-02-05T02:38:01.893Z,0
2018-02-05T02:38:42.445Z,0
2018-02-05T02:39:23.000Z,0
2018-02-05T02:40:03.580Z,0
2018-02-05T02:40:44.146Z,0
2018-02-05T02:41:24.706Z,0
2018-02-05T02:42:05.270Z,0
2018-02-05T02:42:45.832Z,0
2018-02-05T02:43:26.374Z,0
2018-02-05T02:44:06.980Z,0
2018-02-05T02:44:47.517Z,0
2018-02-05T02:45:28.086Z,0
2018-02-05T02:46:08.632Z,0
2018-02-05T02:46:49.186Z,0
2018-02-05T02:47:29.742Z,0
2018-02-05T02:48:10.277Z,0
2018-02-05T02:48:50.823Z,0
2018-02-05T02:49:31.415Z,0
2018-02-05T02:50:11.961Z,0
2018-02-05T02:50:52.564Z,0
2018-02-05T02:51:33.130Z,0
2018-02-05T02:52:13.726Z,0
2018-02-05T02:52:54.277Z,0
2018-02-05T02:53:34.827Z,0
2018-02-05T02:54:15.362Z,0
2018-02-05T02:54:55.901Z,0
2018-02-05T02:55:36.447Z,0
2018-02-05T02:56:16.997Z,0
2018-02-05T02:56:57.588Z,0
2018-02-05T02:57:38.216Z,0
2018-02-05T02:58:18.750Z,0
2018-02-05T02:58:59.285Z,0
2018-02-05T02:59:39.853Z,0
2018-02-05T03:00:20.425Z,0
2018-02-05T03:01:00.983Z,0
2018-02-05T03:01:41.524Z,0
2018-02-05T03:02:22.109Z,0
2018-02-05T03:03:02.684Z,0
2018-02-05T03:03:43.229Z,0
2018-02-05T03:04:23.787Z,0
2018-02-05T03:05:04.351Z,0
2018-02-05T03:05:44.901Z,0
2018-02-05T03:06:25.469Z,0
2018-02-05T03:07:06.020Z,0
2018-02-05T03:07:46.569Z,0
2018-02-05T03:08:27.126Z,0
2018-02-05T03:09:07.682Z,0
2018-02-05T03:09:48.263Z,0
2018-02-05T03:10:28.804Z,0
2018-02-05T03:11:09.343Z,0
2018-02-05T03:11:49.874Z,0
2018-02-05T03:12:30.428Z,0
2018-02-05T03:13:10.977Z,0
2018-02-05T03:13:51.544Z,0
2018-02-05T03:14:32.101Z,0
2018-02-05T03:15:12.650Z,0
2018-02-05T03:15:53.200Z,0
2018-02-05T03:16:33.772Z,0
2018-02-05T03:17:14.345Z,0
2018-02-05T03:17:54.886Z,0
2018-02-05T03:18:35.456Z,0
2018-02-05T03:19:15.997Z,0
2018-02-05T03:19:56.560Z,0
2018-02-05T03:20:37.097Z,0
2018-02-05T03:21:17.646Z,0
2018-02-05T03:21:58.212Z,0
2018-02-05T03:22:38.801Z,0
2018-02-05T03:23:19.339Z,0
2018-02-05T03:23:59.921Z,0
2018-02-05T03:24:40.451Z,0
2018-02-05T03:25:21.015Z,0
2018-02-05T03:26:01.577Z,0
2018-02-05T03:26:42.135Z,0
2018-02-05T03:27:22.686Z,0
2018-02-05T03:28:03.277Z,0
2018-02-05T03:28:43.884Z,0
2018-02-05T03:29:24.434Z,0
2018-02-05T03:30:05.090Z,0
2018-02-05T03:30:45.669Z,0
2018-02-05T03:31:26.231Z,0
2018-02-05T03:32:06.792Z,0
2018-02-05T03:32:47.345Z,0
2018-02-05T03:33:27.912Z,0
2018-02-05T03:34:08.493Z,0
2018-02-05T03:34:49.059Z,0
2018-02-05T03:35:29.601Z,0
2018-02-05T03:36:10.145Z,0
2018-02-05T03:36:50.702Z,0
2018-02-05T03:37:31.246Z,0
2018-02-05T03:38:11.808Z,0
2018-02-05T03:38:52.387Z,0
2018-02-05T03:39:32.959Z,0
2018-02-05T03:40:13.513Z,0
2018-02-05T03:40:54.064Z,0
2018-02-05T03:41:34.634Z,0
2018-02-05T03:42:15.169Z,0
2018-02-05T03:42:55.773Z,0
2018-02-05T03:43:36.324Z,0
2018-02-05T03:44:16.889Z,0
2018-02-05T03:44:57.442Z,0
2018-02-05T03:45:38.004Z,0
2018-02-05T03:46:18.562Z,0
2018-02-05T03:46:59.124Z,0
2018-02-05T03:47:39.677Z,0
2018-02-05T03:48:20.198Z,0
2018-02-05T03:49:00.772Z,0
2018-02-05T03:49:41.312Z,0
2018-02-05T03:50:21.865Z,0
2018-02-05T03:51:02.420Z,0
2018-02-05T03:51:43.015Z,0
2018-02-05T03:52:23.561Z,0
2018-02-05T03:53:04.125Z,0
2018-02-05T03:53:44.687Z,0
2018-02-05T03:54:25.261Z,0
2018-02-05T03:55:05.811Z,0
2018-02-05T03:55:46.358Z,0
2018-02-05T03:56:26.944Z,0
2018-02-05T03:57:07.505Z,0
2018-02-05T03:57:48.038Z,0
2018-02-05T03:58:28.680Z,0
2018-02-05T03:59:09.224Z,0
2018-02-05T03:59:49.862Z,0
2018-02-05T04:00:30.425Z,0
2018-02-05T04:01:10.982Z,0
2018-02-05T04:01:51.580Z,0
2018-02-05T04:02:32.119Z,0
2018-02-05T04:03:12.684Z,0
2018-02-05T04:03:53.278Z,0
2018-02-05T04:04:33.823Z,0
2018-02-05T04:05:14.359Z,0
2018-02-05T04:05:54.916Z,0
2018-02-05T04:06:35.471Z,0
2018-02-05T04:07:16.028Z,0
2018-02-05T04:07:56.580Z,0
2018-02-05T04:08:37.144Z,0
2018-02-05T04:09:17.709Z,0
2018-02-05T04:09:58.278Z,0
2018-02-05T04:10:38.837Z,0
2018-02-05T04:11:19.415Z,0
2018-02-05T04:11:59.974Z,0
2018-02-05T04:12:40.568Z,0
2018-02-05T04:13:21.100Z,0
2018-02-05T04:14:01.671Z,0
2018-02-05T04:14:42.223Z,0
2018-02-05T04:15:22.768Z,0
2018-02-05T04:16:03.376Z,0
2018-02-05T04:16:43.950Z,0
2018-02-05T04:17:24.488Z,0
2018-02-05T04:18:05.064Z,0
2018-02-05T04:18:45.612Z,0
2018-02-05T04:19:26.172Z,0
2018-02-05T04:20:06.726Z,0
2018-02-05T04:20:47.259Z,0
2018-02-05T04:21:27.810Z,0
2018-02-05T04:22:08.410Z,0
2018-02-05T04:22:49.044Z,0
2018-02-05T04:23:29.557Z,0
2018-02-05T04:24:10.132Z,0
2018-02-05T04:24:50.741Z,0
2018-02-05T04:25:31.282Z,0
2018-02-05T04:26:11.827Z,0
2018-02-05T04:26:52.388Z,0
2018-02-05T04:27:32.960Z,0
2018-02-05T04:28:13.563Z,0
2018-02-05T04:28:54.140Z,0
2018-02-05T04:29:34.702Z,0
2018-02-05T04:30:15.255Z,0
2018-02-05T04:30:55.817Z,0
2018-02-05T04:31:36.391Z,0
2018-02-05T04:32:16.936Z,0
2018-02-05T04:32:57.483Z,0
2018-02-05T04:33:38.027Z,0
2018-02-05T04:34:18.622Z,0
2018-02-05T04:34:59.179Z,0
2018-02-05T04:35:39.735Z,0
2018-02-05T04:36:20.291Z,0
2018-02-05T04:37:00.858Z,0
2018-02-05T04:37:41.441Z,0
2018-02-05T04:38:22.056Z,0
2018-02-05T04:39:02.615Z,0
2018-02-05T04:39:43.209Z,0
2018-02-05T04:40:23.773Z,0
2018-02-05T04:41:04.408Z,0
2018-02-05T04:41:44.923Z,0
2018-02-05T04:42:25.530Z,0
2018-02-05T04:43:06.103Z,0
2018-02-05T04:43:46.661Z,0
2018-02-05T04:44:27.235Z,0
2018-02-05T04:45:07.778Z,0
2018-02-05T04:45:48.320Z,0
2018-02-05T04:46:29.031Z,0
2018-02-05T04:47:09.572Z,0
2018-02-05T04:47:50.114Z,0
2018-02-05T04:48:30.676Z,0
2018-02-05T04:49:11.246Z,0
2018-02-05T04:49:51.813Z,0
2018-02-05T04:50:32.408Z,0
2018-02-05T04:51:13.014Z,0
2018-02-05T04:51:53.537Z,0
2018-02-05T04:52:34.140Z,0
2018-02-05T04:53:14.697Z,0
2018-02-05T04:53:55.281Z,0
2018-02-05T04:54:35.841Z,0
2018-02-05T04:55:16.405Z,0
2018-02-05T04:55:56.962Z,0
2018-02-05T04:56:37.556Z,0
2018-02-05T04:57:18.101Z,0
2018-02-05T04:57:58.713Z,0
2018-02-05T04:58:39.231Z,0
2018-02-05T04:59:19.802Z,0
2018-02-05T05:00:00.381Z,0
2018-02-05T05:00:40.932Z,0
2018-02-05T05:01:21.525Z,0
2018-02-05T05:02:02.074Z,0
2018-02-05T05:02:42.678Z,0
2018-02-05T05:03:23.249Z,0
2018-02-05T05:04:03.814Z,0
2018-02-05T05:04:44.366Z,0
2018-02-05T05:05:24.934Z,0
2018-02-05T05:06:05.483Z,0
2018-02-05T05:06:46.039Z,0
2018-02-05T05:07:26.593Z,0
2018-02-05T05:08:07.148Z,0
2018-02-05T05:08:47.735Z,0
2018-02-05T05:09:28.305Z,0
2018-02-05T05:10:08.877Z,0
2018-02-05T05:10:49.425Z,0
2018-02-05T05:11:29.991Z,0
2018-02-05T05:12:10.548Z,0
2018-02-05T05:12:51.105Z,0
2018-02-05T05:13:31.650Z,0
2018-02-05T05:14:12.202Z,0
2018-02-05T05:14:52.815Z,0
2018-02-05T05:15:33.372Z,0
2018-02-05T05:16:13.927Z,0
2018-02-05T05:16:54.475Z,0
2018-02-05T05:17:35.030Z,0
2018-02-05T05:18:15.578Z,0
2018-02-05T05:18:56.144Z,0
2018-02-05T05:19:36.703Z,0
2018-02-05T05:20:17.288Z,0
2018-02-05T05:20:57.838Z,0
2018-02-05T05:21:38.395Z,0
2018-02-05T05:22:18.947Z,0
2018-02-05T05:22:59.490Z,0
2018-02-05T05:23:40.042Z,0
2018-02-05T05:24:20.590Z,0
2018-02-05T05:25:01.151Z,0
2018-02-05T05:25:41.691Z,0
2018-02-05T05:26:22.230Z,0
2018-02-05T05:27:02.793Z,0
2018-02-05T05:27:43.341Z,0
2018-02-05T05:28:23.891Z,0
2018-02-05T05:29:04.499Z,0
2018-02-05T05:29:45.062Z,0
2018-02-05T05:30:25.606Z,0
2018-02-05T05:31:06.154Z,0
2018-02-05T05:31:46.720Z,0
2018-02-05T05:32:27.279Z,0
2018-02-05T05:33:07.848Z,0
2018-02-05T05:33:48.409Z,0
2018-02-05T05:34:28.962Z,0
2018-02-05T05:35:09.541Z,0
2018-02-05T05:35:50.115Z,0
2018-02-05T05:36:30.675Z,0
2018-02-05T05:37:11.219Z,0
2018-02-05T05:37:51.789Z,0
2018-02-05T05:38:32.414Z,0
2018-02-05T05:39:12.958Z,0
2018-02-05T05:39:53.569Z,0
2018-02-05T05:40:34.108Z,0
2018-02-05T05:41:14.693Z,0
2018-02-05T05:41:55.267Z,0
2018-02-05T05:42:35.835Z,0
2018-02-05T05:43:16.471Z,0
2018-02-05T05:43:57.071Z,0
2018-02-05T05:44:37.658Z,0
2018-02-05T05:45:18.209Z,0
2018-02-05T05:45:58.786Z,0
2018-02-05T05:46:39.350Z,0
2018-02-05T05:47:19.925Z,0
2018-02-05T05:48:00.484Z,0
2018-02-05T05:48:41.025Z,0
2018-02-05T05:49:21.578Z,0
2018-02-05T05:50:02.144Z,0
2018-02-05T05:50:42.682Z,0
2018-02-05T05:51:23.242Z,0
2018-02-05T05:52:03.807Z,0
2018-02-05T05:52:44.396Z,0
2018-02-05T05:53:24.988Z,0
2018-02-05T05:54:05.516Z,0
2018-02-05T05:54:46.073Z,0
2018-02-05T05:55:26.633Z,0
2018-02-05T05:56:07.178Z,0
2018-02-05T05:56:47.735Z,0
2018-02-05T05:57:28.275Z,0
2018-02-05T05:58:08.863Z,0
2018-02-05T05:58:49.412Z,0
2018-02-05T05:59:30.012Z,0
2018-02-05T06:00:10.552Z,0
2018-02-05T06:00:51.100Z,0
2018-02-05T06:01:31.658Z,0
2018-02-05T06:02:12.230Z,0
2018-02-05T06:02:52.794Z,0
2018-02-05T06:03:33.356Z,0
2018-02-05T06:04:13.895Z,0
2018-02-05T06:04:54.463Z,0
2018-02-05T06:05:35.013Z,0
2018-02-05T06:06:15.601Z,0
2018-02-05T06:06:56.214Z,0
2018-02-05T06:07:36.782Z,0
2018-02-05T06:08:17.352Z,0
2018-02-05T06:08:57.953Z,0
2018-02-05T06:09:38.523Z,0
2018-02-05T06:10:19.116Z,0
2018-02-05T06:10:59.666Z,0
2018-02-05T06:11:40.212Z,0
2018-02-05T06:12:20.789Z,0
2018-02-05T06:13:01.370Z,0
2018-02-05T06:13:41.915Z,0
2018-02-05T06:14:22.508Z,0
2018-02-05T06:15:03.038Z,0
2018-02-05T06:15:43.586Z,0
2018-02-05T06:16:24.187Z,0
2018-02-05T06:17:04.789Z,0
2018-02-05T06:17:45.422Z,0
2018-02-05T06:18:25.988Z,0
2018-02-05T06:19:06.707Z,0
2018-02-05T06:19:47.190Z,0
2018-02-05T06:20:27.745Z,0
2018-02-05T06:21:08.354Z,0
2018-02-05T06:21:48.900Z,0
2018-02-05T06:22:29.453Z,0
2018-02-05T06:23:09.985Z,0
2018-02-05T06:23:50.534Z,0
2018-02-05T06:24:31.097Z,0
2018-02-05T06:25:11.638Z,0
2018-02-05T06:25:52.220Z,0
2018-02-05T06:26:32.740Z,0
2018-02-05T06:27:13.291Z,0
2018-02-05T06:27:53.861Z,0
2018-02-05T06:28:34.421Z,0
2018-02-05T06:29:14.991Z,0
2018-02-05T06:29:55.551Z,0
2018-02-05T06:30:36.095Z,0
2018-02-05T06:31:16.662Z,0
2018-02-05T06:31:57.229Z,0
2018-02-05T06:32:37.780Z,0
2018-02-05T06:33:18.330Z,0
2018-02-05T06:33:58.896Z,0
2018-02-05T06:34:39.430Z,0
2018-02-05T06:35:20.083Z,0
2018-02-05T06:36:00.629Z,0
2018-02-05T06:36:41.179Z,0
2018-02-05T06:37:21.719Z,0
2018-02-05T06:38:02.282Z,0
2018-02-05T06:38:42.837Z,0
2018-02-05T06:39:23.417Z,0
2018-02-05T06:40:03.986Z,0
2018-02-05T06:40:44.545Z,0
2018-02-05T06:41:25.137Z,5
2018-02-05T06:42:05.689Z,5
2018-02-05T06:42:46.253Z,5
2018-02-05T06:43:26.782Z,5
2018-02-05T06:44:07.334Z,5
2018-02-05T06:44:47.889Z,5
2018-02-05T06:45:28.446Z,5
2018-02-05T06:46:09.017Z,5
2018-02-05T06:46:49.582Z,5
2018-02-05T06:47:30.117Z,5
2018-02-05T06:48:10.666Z,5
2018-02-05T06:48:51.263Z,5
2018-02-05T06:49:31.826Z,5
2018-02-05T06:50:12.372Z,5
2018-02-05T06:50:52.925Z,5
2018-02-05T06:51:33.520Z,5
2018-02-05T06:52:14.060Z,5
2018-02-05T06:52:54.625Z,5
2018-02-05T06:53:35.175Z,10
2018-02-05T06:54:15.731Z,10
2018-02-05T06:54:56.346Z,10
2018-02-05T06:55:36.856Z,10
2018-02-05T06:56:17.397Z,10
2018-02-05T06:56:57.943Z,10
2018-02-05T06:57:38.528Z,10
2018-02-05T06:58:19.091Z,10
2018-02-05T06:58:59.657Z,10
2018-02-05T06:59:40.220Z,10
2018-02-05T07:00:20.791Z,15
2018-02-05T07:01:01.311Z,15
2018-02-05T07:01:41.862Z,15
2018-02-05T07:02:22.422Z,15
2018-02-05T07:03:02.969Z,15
2018-02-05T07:03:43.556Z,15
2018-02-05T07:04:24.127Z,15
2018-02-05T07:05:04.736Z,20
2018-02-05T07:05:45.290Z,20
2018-02-05T07:06:25.859Z,20
2018-02-05T07:07:06.441Z,20
2018-02-05T07:07:46.990Z,20
2018-02-05T07:08:27.576Z,20
2018-02-05T07:09:08.110Z,20
2018-02-05T07:09:48.668Z,20
2018-02-05T07:10:29.245Z,20
2018-02-05T07:11:09.810Z,15
2018-02-05T07:11:50.356Z,15
2018-02-05T07:12:30.926Z,15
2018-02-05T07:13:11.488Z,20
2018-02-05T07:13:52.078Z,20
2018-02-05T07:14:32.632Z,25
2018-02-05T07:15:13.242Z,25
2018-02-05T07:15:53.753Z,30
2018-02-05T07:16:34.306Z,30
2018-02-05T07:17:14.875Z,30
2018-02-05T07:17:55.435Z,35
2018-02-05T07:18:35.994Z,35
2018-02-05T07:19:16.581Z,35
2018-02-05T07:19:57.191Z,35
2018-02-05T07:20:37.789Z,35
2018-02-05T07:21:18.337Z,35
2018-02-05T07:21:58.894Z,40
2018-02-05T07:22:39.444Z,45
2018-02-05T07:23:20.487Z,45
2018-02-05T07:24:01.041Z,50
2018-02-05T07:24:41.618Z,50
2018-02-05T07:25:22.196Z,50
2018-02-05T07:26:02.758Z,55
2018-02-05T07:26:43.316Z,55
2018-02-05T07:27:23.886Z,55
2018-02-05T07:28:04.452Z,55
2018-02-05T07:28:45.000Z,55
2018-02-05T07:29:25.557Z,55
2018-02-05T07:30:06.133Z,55
2018-02-05T07:30:46.664Z,60
2018-02-05T07:31:27.242Z,55
2018-02-05T07:32:07.831Z,60
2018-02-05T07:32:48.383Z,65
2018-02-05T07:33:28.966Z,65
2018-02-05T07:34:09.530Z,65
2018-02-05T07:34:50.407Z,70
2018-02-05T07:35:31.033Z,80
2018-02-05T07:36:11.630Z,80
2018-02-05T07:36:52.207Z,80
2018-02-05T07:37:32.817Z,75
2018-02-05T07:38:13.455Z,75
2018-02-05T07:38:53.986Z,75
2018-02-05T07:39:34.665Z,70
2018-02-05T07:40:15.263Z,65
2018-02-05T07:40:55.833Z,65
2018-02-05T07:41:36.401Z,60
2018-02-05T07:42:16.944Z,55
2018-02-05T07:42:57.521Z,60
2018-02-05T07:43:38.102Z,60
2018-02-05T07:44:18.706Z,60
2018-02-05T07:44:59.255Z,60
2018-02-05T07:45:39.931Z,65
2018-02-05T07:46:20.514Z,65
2018-02-05T07:47:01.051Z,65
2018-02-05T07:47:41.668Z,60
2018-02-05T07:48:22.206Z,60
2018-02-05T07:49:02.777Z,55
2018-02-05T07:49:43.335Z,55
2018-02-05T07:50:23.905Z,55
2018-02-05T07:51:04.500Z,55
2018-02-05T07:51:45.060Z,55
2018-02-05T07:52:25.625Z,55
2018-02-05T07:53:06.194Z,55
2018-02-05T07:53:46.742Z,50
2018-02-05T07:54:27.281Z,50
2018-02-05T07:55:07.844Z,45
2018-02-05T07:55:48.460Z,45
2018-02-05T07:56:29.095Z,45
2018-02-05T07:57:09.697Z,40
2018-02-05T07:57:50.229Z,40
2018-02-05T07:58:30.764Z,35
2018-02-05T07:59:11.302Z,35
2018-02-05T07:59:51.834Z,35
2018-02-05T08:00:32.409Z,35
2018-02-05T08:01:12.999Z,35
2018-02-05T08:01:53.563Z,35
2018-02-05T08:02:34.134Z,35
2018-02-05T08:03:14.699Z,35
2018-02-05T08:03:55.300Z,35
2018-02-05T08:04:35.868Z,35
2018-02-05T08:05:16.439Z,35
2018-02-05T08:05:57.049Z,35
2018-02-05T08:06:37.615Z,35
2018-02-05T08:07:18.164Z,40
2018-02-05T08:07:58.707Z,40
2018-02-05T08:08:39.245Z,40
2018-02-05T08:09:19.774Z,40
2018-02-05T08:10:00.346Z,40
2018-02-05T08:10:40.890Z,45
2018-02-05T08:11:21.473Z,45
2018-02-05T08:12:02.040Z,45
2018-02-05T08:12:42.614Z,50
2018-02-05T08:13:23.208Z,50
2018-02-05T08:14:03.763Z,50
2018-02-05T08:14:44.341Z,50
2018-02-05T08:15:24.912Z,50
2018-02-05T08:16:05.491Z,50
2018-02-05T08:16:46.038Z,55
2018-02-05T08:17:26.592Z,55
2018-02-05T08:18:07.188Z,55
2018-02-05T08:18:47.766Z,60
2018-02-05T08:19:28.301Z,65
2018-02-05T08:20:08.863Z,65
2018-02-05T08:20:49.411Z,65
2018-02-05T08:21:29.967Z,65
2018-02-05T08:22:10.584Z,65
2018-02-05T08:22:51.141Z,65
2018-02-05T08:23:31.700Z,70
2018-02-05T08:24:12.234Z,70
2018-02-05T08:24:52.773Z,70
2018-02-05T08:25:33.369Z,80
2018-02-05T08:26:13.934Z,85
2018-02-05T08:26:54.496Z,80
2018-02-05T08:27:35.065Z,80
2018-02-05T08:28:15.652Z,75
2018-02-05T08:28:56.201Z,80
2018-02-05T08:29:36.759Z,85
2018-02-05T08:30:17.368Z,85
2018-02-05T08:30:57.949Z,75
2018-02-05T08:31:38.572Z,70
2018-02-05T08:32:19.120Z,70
2018-02-05T08:32:59.754Z,80
2018-02-05T08:33:40.338Z,90
2018-02-05T08:34:20.929Z,65
2018-02-05T08:35:01.489Z,60
2018-02-05T08:35:42.073Z,60
2018-02-05T08:36:22.680Z,60
2018-02-05T08:37:03.202Z,65
2018-02-05T08:37:43.772Z,60
2018-02-05T08:38:24.326Z,55
2018-02-05T08:39:04.906Z,55
2018-02-05T08:39:45.457Z,55
2018-02-05T08:40:26.022Z,60
2018-02-05T08:41:06.580Z,130
2018-02-05T08:41:47.162Z,130
2018-02-05T08:42:27.720Z,60
2018-02-05T08:43:08.313Z,55
2018-02-05T08:43:48.865Z,55
2018-02-05T08:44:29.424Z,55
2018-02-05T08:45:09.965Z,55
2018-02-05T08:45:50.506Z,55
2018-02-05T08:46:31.066Z,60
2018-02-05T08:47:11.634Z,60
2018-02-05T08:47:52.197Z,65
2018-02-05T08:48:32.755Z,65
2018-02-05T08:49:13.371Z,70
2018-02-05T08:49:53.999Z,75
2018-02-05T08:50:34.554Z,75
2018-02-05T08:51:15.102Z,80
2018-02-05T08:51:55.676Z,80
2018-02-05T08:52:36.229Z,85
2018-02-05T08:53:16.901Z,85
2018-02-05T08:53:57.525Z,90
2018-02-05T08:54:38.115Z,100
2018-02-05T08:55:18.714Z,100
2018-02-05T08:55:59.268Z,105
2018-02-05T08:56:39.831Z,110
2018-02-05T08:57:20.383Z,115
2018-02-05T08:58:00.961Z,125
2018-02-05T08:58:41.525Z,140
2018-02-05T08:59:22.099Z,175
2018-02-05T09:00:02.616Z,210
2018-02-05T09:00:43.198Z,435
2018-02-05T09:01:23.766Z,525
2018-02-05T09:02:04.337Z,145
2018-02-05T09:02:44.912Z,150
2018-02-05T09:03:25.482Z,140
2018-02-05T09:04:06.045Z,140
2018-02-05T09:04:46.625Z,135
2018-02-05T09:05:27.262Z,130
2018-02-05T09:06:07.805Z,130
2018-02-05T09:06:48.345Z,135
2018-02-05T09:07:28.901Z,145
2018-02-05T09:08:09.458Z,145
2018-02-05T09:08:50.047Z,155
2018-02-05T09:09:30.613Z,165
2018-02-05T09:10:11.145Z,190
2018-02-05T09:10:51.717Z,160
2018-02-05T09:11:32.272Z,150
2018-02-05T09:12:12.832Z,150
2018-02-05T09:12:53.421Z,155
2018-02-05T09:13:33.986Z,155
2018-02-05T09:14:14.602Z,155
2018-02-05T09:14:55.105Z,160
2018-02-05T09:15:35.654Z,160
2018-02-05T09:16:16.228Z,165
2018-02-05T09:16:56.793Z,180
2018-02-05T09:17:37.343Z,205
2018-02-05T09:18:17.936Z,510
2018-02-05T09:18:58.593Z,290
2018-02-05T09:19:39.237Z,300
2018-02-05T09:20:19.821Z,375
2018-02-05T09:21:00.366Z,230
2018-02-05T09:21:40.943Z,195
2018-02-05T09:22:21.524Z,180
2018-02-05T09:23:02.071Z,180
2018-02-05T09:23:42.649Z,190
2018-02-05T09:24:23.238Z,175
2018-02-05T09:25:03.785Z,155
2018-02-05T09:25:44.373Z,150
2018-02-05T09:26:24.986Z,145
2018-02-05T09:27:05.556Z,140
2018-02-05T09:27:46.102Z,140
2018-02-05T09:28:26.641Z,140
2018-02-05T09:29:07.206Z,140
2018-02-05T09:29:47.756Z,140
2018-02-05T09:30:28.308Z,145
2018-02-05T09:31:08.888Z,205
2018-02-05T09:31:49.444Z,350
2018-02-05T09:32:30.016Z,155
2018-02-05T09:33:10.649Z,130
2018-02-05T09:33:51.174Z,120
2018-02-05T09:34:31.723Z,115
2018-02-05T09:35:12.293Z,110
2018-02-05T09:35:52.894Z,145
2018-02-05T09:36:33.471Z,155
2018-02-05T09:37:14.040Z,230
2018-02-05T09:37:54.669Z,270
2018-02-05T09:38:35.213Z,265
2018-02-05T09:39:15.825Z,255
2018-02-05T09:39:56.373Z,250
2018-02-05T09:40:36.955Z,250
2018-02-05T09:41:17.533Z,250
2018-02-05T09:41:58.095Z,235
2018-02-05T09:42:38.645Z,225
2018-02-05T09:43:19.186Z,220
2018-02-05T09:43:59.781Z,215
2018-02-05T09:44:40.285Z,220
2018-02-05T09:45:20.870Z,205
2018-02-05T09:46:01.427Z,195
2018-02-05T09:46:41.966Z,195
2018-02-05T09:47:22.582Z,190
2018-02-05T09:48:03.170Z,175
2018-02-05T09:48:43.753Z,175
2018-02-05T09:49:24.303Z,175
2018-02-05T09:50:04.904Z,165
2018-02-05T09:50:45.508Z,160
2018-02-05T09:51:26.096Z,160